Terminal Aerodrome Forecast
Issued by NWS

Home | Current Version | Previous Version | Graphics & Text | Print | Product List | Glossary On
Versions: 1 2 3 4 5 6 7 8 9 10 11 12 13 14 15 16 17 18
265
FTUS43 KTOP 260520
TAFMHK
TAF
KMHK 260520Z 2606/2706 09006KT 6SM TSRA BKN050CB
     FM260800 05003KT P6SM BKN060
     FM261100 01006KT P6SM SCT015 BKN050
     FM261700 01008KT P6SM SCT025
     FM270000 04004KT P6SM FEW250=

USA.gov is the U.S. government's official web portal to all federal, state and local government web resources and services.